createdAt,value
2024-05-09T00:00:40.818Z,87.22
2024-05-09T00:01:40.403Z,86.50
2024-05-09T00:02:41.116Z,87.05
2024-05-09T00:03:41.973Z,87.36
2024-05-09T00:04:42.861Z,87.92
2024-05-09T00:05:44.232Z,88.23
2024-05-09T00:06:44.214Z,88.08
2024-05-09T00:07:45.038Z,87.84
2024-05-09T00:08:45.791Z,86.80
2024-05-09T00:09:46.572Z,87.15
2024-05-09T00:10:47.426Z,87.71
2024-05-09T00:11:48.331Z,88.53
2024-05-09T00:12:49.105Z,88.23
2024-05-09T00:13:49.912Z,88.84
2024-05-09T00:14:50.659Z,87.87
2024-05-09T00:15:51.402Z,87.15
2024-05-09T00:16:52.163Z,88.12
2024-05-09T00:17:53.145Z,88.23
2024-05-09T00:18:53.600Z,88.33
2024-05-09T00:19:54.301Z,88.84
2024-05-09T00:20:55.084Z,88.12
2024-05-09T00:21:55.812Z,88.53
2024-05-09T00:22:56.613Z,88.47
2024-05-09T00:23:57.367Z,88.89
2024-05-09T00:24:58.182Z,89.54
2024-05-09T00:25:58.986Z,89.91
2024-05-09T00:26:59.743Z,88.49
2024-05-09T00:28:00.552Z,87.57
2024-05-09T00:29:01.307Z,86.95
2024-05-09T00:30:03.927Z,87.60
2024-05-09T00:31:02.794Z,88.12
2024-05-09T00:32:03.702Z,87.12
2024-05-09T00:33:05.180Z,86.70
2024-05-09T00:34:05.105Z,86.85
2024-05-09T00:35:05.446Z,87.71
2024-05-09T00:36:06.163Z,87.77
2024-05-09T00:37:06.938Z,87.26
2024-05-09T00:38:07.817Z,86.99
2024-05-09T00:39:08.588Z,88.10
2024-05-09T00:40:15.108Z,88.64
2024-05-09T00:41:11.291Z,88.33
2024-05-09T00:42:10.565Z,87.51
2024-05-09T00:43:12.209Z,87.51
2024-05-09T00:44:11.925Z,86.95
2024-05-09T00:45:12.651Z,86.68
2024-05-09T00:46:13.441Z,87.90
2024-05-09T00:47:14.353Z,88.92
2024-05-09T00:48:17.778Z,88.62
2024-05-09T00:49:16.235Z,89.38
2024-05-09T00:50:22.951Z,89.23
2024-05-09T00:51:18.693Z,89.48
2024-05-09T00:52:18.422Z,89.69
2024-05-09T00:53:19.345Z,89.69
2024-05-09T00:54:20.130Z,90.00
2024-05-09T00:55:20.984Z,89.69
2024-05-09T00:56:21.710Z,89.75
2024-05-09T00:57:22.487Z,89.69
2024-05-09T00:58:23.222Z,89.13
2024-05-09T00:59:24.143Z,89.03
2024-05-09T01:00:31.665Z,88.82
2024-05-09T01:01:26.590Z,88.82
2024-05-09T01:02:26.397Z,88.68
2024-05-09T01:03:27.654Z,87.85
2024-05-09T01:04:28.147Z,87.30
2024-05-09T01:05:28.948Z,87.54
2024-05-09T01:06:29.672Z,88.37
2024-05-09T01:07:30.412Z,88.47
2024-05-09T01:08:31.374Z,87.71
2024-05-09T01:09:31.725Z,87.30
2024-05-09T01:10:35.038Z,87.79
2024-05-09T01:11:33.579Z,88.56
2024-05-09T01:12:34.431Z,89.48
2024-05-09T01:13:35.236Z,89.17
2024-05-09T01:14:36.029Z,89.48
2024-05-09T01:15:36.763Z,89.73
2024-05-09T01:16:37.515Z,90.61
2024-05-09T01:17:38.409Z,90.10
2024-05-09T01:18:39.275Z,89.52
2024-05-09T01:19:40.125Z,90.49
2024-05-09T01:20:43.819Z,91.32
2024-05-09T01:21:41.443Z,91.17
2024-05-09T01:22:42.396Z,90.20
2024-05-09T01:23:43.268Z,88.92
2024-05-09T01:24:44.027Z,88.41
2024-05-09T01:25:45.321Z,88.56
2024-05-09T01:26:45.766Z,88.72
2024-05-09T01:27:46.524Z,87.65
2024-05-09T01:28:47.324Z,87.44
2024-05-09T01:29:48.104Z,87.65
2024-05-09T01:30:48.902Z,87.75
2024-05-09T01:31:49.707Z,87.85
2024-05-09T01:32:50.762Z,87.24
2024-05-09T01:33:51.316Z,87.01
2024-05-09T01:34:52.183Z,89.36
2024-05-09T01:35:52.895Z,90.08
2024-05-09T01:36:53.652Z,89.32
2024-05-09T01:37:54.472Z,90.19
2024-05-09T01:38:55.219Z,90.35
2024-05-09T01:39:55.973Z,89.62
2024-05-09T01:40:56.837Z,89.83
2024-05-09T01:41:57.612Z,89.69
2024-05-09T01:42:58.390Z,88.80
2024-05-09T01:43:59.210Z,89.17
2024-05-09T01:44:59.940Z,88.45
2024-05-09T01:46:00.726Z,87.99
2024-05-09T01:47:01.541Z,87.79
2024-05-09T01:48:03.040Z,88.35
2024-05-09T01:49:03.306Z,88.14
2024-05-09T01:50:06.776Z,88.90
2024-05-09T01:51:05.142Z,88.59
2024-05-09T01:52:05.868Z,88.80
2024-05-09T01:53:06.743Z,89.11
2024-05-09T01:54:07.508Z,88.96
2024-05-09T01:55:08.268Z,88.96
2024-05-09T01:56:09.078Z,88.76
2024-05-09T01:57:09.805Z,88.56
2024-05-09T01:58:10.563Z,87.83
2024-05-09T01:59:11.490Z,88.04
2024-05-09T02:01:13.111Z,87.42
2024-05-09T02:02:13.966Z,87.98
2024-05-09T02:03:17.164Z,88.12
2024-05-09T02:04:15.843Z,89.15
2024-05-09T02:05:16.739Z,89.01
2024-05-09T02:06:17.511Z,88.04
2024-05-09T02:07:18.266Z,87.83
2024-05-09T02:08:19.482Z,87.93
2024-05-09T02:09:19.951Z,87.73
2024-05-09T02:10:26.348Z,87.63
2024-05-09T02:11:22.482Z,87.38
2024-05-09T02:12:22.455Z,86.76
2024-05-09T02:13:23.232Z,86.24
2024-05-09T02:14:24.197Z,86.90
2024-05-09T02:15:24.518Z,87.35
2024-05-09T02:16:25.265Z,88.29
2024-05-09T02:17:26.245Z,88.59
2024-05-09T02:18:26.633Z,88.18
2024-05-09T02:19:27.575Z,88.08
2024-05-09T02:20:34.132Z,88.29
2024-05-09T02:21:29.990Z,88.18
2024-05-09T02:22:29.740Z,88.53
2024-05-09T02:23:30.634Z,88.70
2024-05-09T02:24:31.499Z,88.18
2024-05-09T02:25:32.682Z,88.49
2024-05-09T02:26:33.114Z,88.64
2024-05-09T02:27:33.834Z,89.65
2024-05-09T02:28:34.582Z,90.64
2024-05-09T02:29:35.526Z,89.71
2024-05-09T02:30:40.550Z,89.67
2024-05-09T02:31:37.911Z,88.53
2024-05-09T02:32:37.891Z,89.40
2024-05-09T02:33:38.390Z,89.29
2024-05-09T02:34:38.840Z,89.71
2024-05-09T02:35:39.647Z,89.19
2024-05-09T02:36:40.445Z,89.75
2024-05-09T02:37:41.223Z,89.71
2024-05-09T02:38:42.102Z,89.61
2024-05-09T02:39:42.815Z,89.50
2024-05-09T02:40:43.605Z,89.61
2024-05-09T02:41:44.318Z,89.29
2024-05-09T02:42:45.100Z,89.50
2024-05-09T02:43:45.888Z,89.19
2024-05-09T02:44:46.651Z,89.61
2024-05-09T02:45:47.391Z,89.25
2024-05-09T02:46:48.209Z,89.29
2024-05-09T02:47:49.174Z,89.92
2024-05-09T02:48:49.573Z,90.22
2024-05-09T02:49:50.445Z,90.39
2024-05-09T02:50:51.223Z,90.43
2024-05-09T02:51:51.962Z,90.43
2024-05-09T02:52:52.815Z,90.33
2024-05-09T02:53:53.512Z,90.53
2024-05-09T02:54:54.279Z,90.22
2024-05-09T02:55:55.117Z,90.43
2024-05-09T02:56:55.557Z,90.74
2024-05-09T02:57:56.315Z,90.43
2024-05-09T02:58:57.128Z,90.89
2024-05-09T02:59:57.874Z,90.64
2024-05-09T03:00:58.700Z,90.02
2024-05-09T03:01:59.716Z,90.12
2024-05-09T03:03:00.218Z,89.36
2024-05-09T03:04:00.676Z,89.19
2024-05-09T03:05:01.543Z,89.65
2024-05-09T03:06:02.335Z,90.02
2024-05-09T03:07:03.089Z,89.81
2024-05-09T03:08:04.034Z,88.95
2024-05-09T03:09:04.391Z,88.89
2024-05-09T03:10:11.809Z,89.05
2024-05-09T03:11:06.957Z,88.95
2024-05-09T03:12:06.825Z,88.89
2024-05-09T03:13:07.706Z,89.19
2024-05-09T03:14:08.449Z,88.89
2024-05-09T03:15:09.224Z,89.09
2024-05-09T03:16:10.000Z,89.40
2024-05-09T03:17:10.792Z,89.03
2024-05-09T03:18:12.330Z,88.92
2024-05-09T03:19:12.893Z,89.23
2024-05-09T03:20:20.510Z,89.75
2024-05-09T03:21:14.857Z,89.44
2024-05-09T03:22:14.578Z,89.23
2024-05-09T03:23:15.399Z,89.13
2024-05-09T03:24:16.173Z,89.23
2024-05-09T03:25:16.953Z,89.44
2024-05-09T03:26:17.743Z,89.19
2024-05-09T03:27:18.461Z,88.68
2024-05-09T03:28:19.214Z,89.23
2024-05-09T03:29:20.051Z,89.75
2024-05-09T03:30:29.624Z,89.95
2024-05-09T03:31:22.438Z,89.44
2024-05-09T03:32:22.289Z,89.23
2024-05-09T03:33:23.395Z,89.69
2024-05-09T03:34:23.969Z,89.75
2024-05-09T03:35:24.844Z,89.07
2024-05-09T03:36:25.658Z,89.89
2024-05-09T03:37:26.395Z,90.52
2024-05-09T03:38:27.202Z,90.35
2024-05-09T03:39:27.964Z,91.01
2024-05-09T03:40:30.919Z,91.07
2024-05-09T03:41:29.665Z,90.97
2024-05-09T03:42:30.464Z,91.63
2024-05-09T03:43:31.219Z,91.84
2024-05-09T03:44:32.085Z,92.52
2024-05-09T03:45:32.855Z,91.38
2024-05-09T03:46:33.610Z,91.13
2024-05-09T03:47:34.623Z,90.16
2024-05-09T03:48:35.019Z,89.59
2024-05-09T03:49:35.876Z,90.20
2024-05-09T03:50:37.365Z,90.16
2024-05-09T03:51:37.469Z,89.89
2024-05-09T03:52:38.233Z,89.86
2024-05-09T03:53:39.108Z,89.86
2024-05-09T03:54:39.950Z,89.54
2024-05-09T03:55:40.772Z,89.65
2024-05-09T03:56:41.578Z,89.62
2024-05-09T03:57:42.339Z,90.66
2024-05-09T03:58:43.089Z,91.63
2024-05-09T03:59:43.845Z,91.74
2024-05-09T04:00:44.717Z,91.74
2024-05-09T04:01:45.687Z,91.74
2024-05-09T04:02:46.084Z,91.69
2024-05-09T04:03:47.039Z,91.17
2024-05-09T04:04:47.533Z,90.52
2024-05-09T04:05:48.309Z,90.16
2024-05-09T04:06:49.190Z,89.54
2024-05-09T04:07:49.964Z,89.59
2024-05-09T04:08:50.691Z,90.31
2024-05-09T04:09:51.445Z,90.52
2024-05-09T04:10:52.270Z,90.06
2024-05-09T04:11:53.237Z,89.34
2024-05-09T04:12:53.512Z,88.71
2024-05-09T04:13:54.288Z,88.92
2024-05-09T04:14:55.029Z,89.38
2024-05-09T04:15:55.811Z,89.38
2024-05-09T04:16:56.581Z,89.52
2024-05-09T04:17:57.643Z,90.10
2024-05-09T04:18:58.100Z,90.35
2024-05-09T04:19:58.935Z,90.97
2024-05-09T04:20:59.781Z,90.62
2024-05-09T04:22:00.495Z,90.62
2024-05-09T04:23:01.355Z,89.86
2024-05-09T04:24:02.089Z,89.86
2024-05-09T04:25:02.869Z,89.89
2024-05-09T04:26:03.685Z,90.06
2024-05-09T04:27:04.400Z,90.31
2024-05-09T04:28:05.330Z,90.26
2024-05-09T04:29:06.121Z,90.37
2024-05-09T04:30:10.103Z,89.29
2024-05-09T04:31:08.525Z,89.09
2024-05-09T04:32:08.437Z,89.40
2024-05-09T04:33:11.499Z,89.19
2024-05-09T04:34:10.264Z,89.19
2024-05-09T04:35:10.645Z,88.89
2024-05-09T04:36:11.386Z,89.75
2024-05-09T04:37:12.134Z,90.31
2024-05-09T04:38:13.622Z,90.26
2024-05-09T04:39:13.867Z,89.86
2024-05-09T04:40:24.214Z,90.31
2024-05-09T04:41:16.315Z,90.58
2024-05-09T04:42:16.074Z,90.37
2024-05-09T04:43:16.855Z,90.47
2024-05-09T04:44:17.644Z,89.95
2024-05-09T04:45:18.387Z,90.06
2024-05-09T04:46:19.139Z,90.37
2024-05-09T04:47:20.131Z,90.58
2024-05-09T04:48:20.592Z,90.12
2024-05-09T04:49:21.711Z,89.40
2024-05-09T04:50:30.117Z,88.89
2024-05-09T04:51:23.675Z,88.95
2024-05-09T04:52:23.464Z,88.74
2024-05-09T04:53:24.230Z,89.23
2024-05-09T04:54:33.738Z,90.06
2024-05-09T04:55:26.609Z,89.95
2024-05-09T04:56:26.436Z,90.16
2024-05-09T04:57:27.189Z,90.26
2024-05-09T04:58:27.943Z,90.26
2024-05-09T04:59:28.727Z,90.53
2024-05-09T05:00:35.661Z,89.77
2024-05-09T05:01:31.127Z,88.70
2024-05-09T05:02:30.947Z,88.39
2024-05-09T05:03:32.124Z,88.29
2024-05-09T05:04:32.569Z,88.39
2024-05-09T05:05:33.335Z,89.25
2024-05-09T05:06:34.077Z,89.22
2024-05-09T05:07:34.894Z,88.70
2024-05-09T05:08:35.663Z,89.15
2024-05-09T05:09:36.366Z,89.87
2024-05-09T05:10:37.149Z,90.19
2024-05-09T05:11:37.969Z,89.83
2024-05-09T05:12:38.721Z,88.24
2024-05-09T05:13:41.501Z,88.59
2024-05-09T05:14:40.509Z,89.22
2024-05-09T05:15:41.217Z,89.36
2024-05-09T05:16:42.005Z,89.52
2024-05-09T05:17:42.977Z,89.32
2024-05-09T05:18:43.427Z,88.76
2024-05-09T05:19:44.448Z,88.35
2024-05-09T05:20:44.964Z,88.14
2024-05-09T05:21:45.799Z,88.04
2024-05-09T05:22:46.641Z,87.93
2024-05-09T05:23:47.408Z,87.48
2024-05-09T05:24:48.158Z,86.97
2024-05-09T05:25:49.143Z,86.52
2024-05-09T05:26:49.485Z,85.89
2024-05-09T05:27:50.240Z,85.69
2024-05-09T05:28:51.077Z,86.21
2024-05-09T05:29:51.908Z,87.73
2024-05-09T05:30:52.662Z,87.17
2024-05-09T05:31:53.546Z,86.97
2024-05-09T05:32:54.548Z,86.72
2024-05-09T05:33:54.938Z,87.03
2024-05-09T05:34:55.769Z,86.27
2024-05-09T05:35:56.529Z,85.34
2024-05-09T05:36:57.280Z,84.99
2024-05-09T05:37:58.073Z,85.44
2024-05-09T05:38:58.817Z,86.47
2024-05-09T05:39:59.625Z,85.51
2024-05-09T05:41:00.567Z,85.10
2024-05-09T05:42:01.334Z,86.16
2024-05-09T05:43:02.073Z,86.27
2024-05-09T05:44:02.880Z,85.71
2024-05-09T05:45:05.115Z,85.51
2024-05-09T05:46:04.285Z,85.51
2024-05-09T05:47:05.089Z,85.30
2024-05-09T05:48:06.778Z,84.79
2024-05-09T05:49:06.618Z,84.95
2024-05-09T05:50:20.430Z,85.26
2024-05-09T05:51:09.048Z,84.95
2024-05-09T05:52:08.777Z,84.34
2024-05-09T05:53:10.343Z,83.68
2024-05-09T05:54:10.442Z,84.03
2024-05-09T05:55:11.194Z,84.75
2024-05-09T05:56:12.007Z,84.54
2024-05-09T05:57:12.740Z,84.30
2024-05-09T05:58:13.545Z,83.48
2024-05-09T05:59:15.441Z,82.82
2024-05-09T06:00:21.655Z,82.20
2024-05-09T06:01:16.614Z,82.31
2024-05-09T06:02:16.519Z,83.58
2024-05-09T06:03:17.461Z,84.09
2024-05-09T06:04:18.286Z,83.68
2024-05-09T06:05:19.093Z,83.54
2024-05-09T06:06:19.834Z,83.85
2024-05-09T06:07:20.622Z,83.61
2024-05-09T06:08:21.610Z,83.85
2024-05-09T06:09:22.046Z,84.47
2024-05-09T06:10:26.366Z,83.40
2024-05-09T06:11:24.444Z,82.78
2024-05-09T06:12:24.412Z,82.99
2024-05-09T06:13:25.156Z,82.43
2024-05-09T06:14:25.932Z,82.13
2024-05-09T06:15:26.655Z,81.16
2024-05-09T06:16:27.486Z,81.16
2024-05-09T06:17:28.450Z,80.82
2024-05-09T06:18:29.507Z,80.41
2024-05-09T06:19:29.984Z,80.62
2024-05-09T06:21:31.755Z,81.02
2024-05-09T06:22:32.506Z,80.51
2024-05-09T06:23:33.442Z,80.07
2024-05-09T06:24:33.793Z,80.27
2024-05-09T06:25:34.543Z,80.72
2024-05-09T06:26:35.379Z,80.88
2024-05-09T06:27:36.155Z,80.27
2024-05-09T06:28:36.912Z,79.66
2024-05-09T06:29:37.705Z,79.45
2024-05-09T06:30:41.004Z,79.35
2024-05-09T06:31:39.297Z,79.62
2024-05-09T06:32:40.266Z,79.62
2024-05-09T06:33:40.861Z,78.90
2024-05-09T06:34:41.283Z,78.59
2024-05-09T06:35:42.407Z,78.45
2024-05-09T06:36:42.775Z,78.56
2024-05-09T06:37:43.527Z,78.66
2024-05-09T06:38:44.312Z,78.66
2024-05-09T06:39:45.043Z,78.86
2024-05-09T06:40:45.929Z,78.31
2024-05-09T06:41:46.650Z,77.80
2024-05-09T06:42:47.417Z,77.91
2024-05-09T06:43:48.180Z,77.70
2024-05-09T06:44:48.938Z,77.80
2024-05-09T06:45:49.760Z,77.39
2024-05-09T06:46:50.682Z,77.36
2024-05-09T06:47:51.570Z,77.05
2024-05-09T06:48:52.718Z,76.75
2024-05-09T06:49:53.324Z,76.75
2024-05-09T06:50:54.066Z,77.01
2024-05-09T06:51:54.795Z,76.91
2024-05-09T06:52:55.582Z,76.71
2024-05-09T06:53:56.356Z,76.40
2024-05-09T06:54:57.106Z,76.30
2024-05-09T06:55:57.872Z,76.16
2024-05-09T06:56:58.616Z,76.37
2024-05-09T06:57:59.380Z,76.47
2024-05-09T06:59:00.216Z,75.96
2024-05-09T07:00:01.135Z,75.85
2024-05-09T07:01:02.040Z,76.64
2024-05-09T07:02:02.800Z,76.12
2024-05-09T07:03:05.677Z,74.90
2024-05-09T07:04:04.651Z,74.18
2024-05-09T07:05:05.081Z,73.54
2024-05-09T07:06:06.002Z,73.74
2024-05-09T07:07:06.863Z,73.23
2024-05-09T07:08:07.798Z,72.82
2024-05-09T07:09:08.126Z,72.52
2024-05-09T07:10:14.863Z,72.38
2024-05-09T07:11:10.694Z,72.58
2024-05-09T07:12:10.625Z,72.17
2024-05-09T07:13:11.013Z,72.04
2024-05-09T07:14:11.749Z,71.73
2024-05-09T07:15:12.504Z,72.04
2024-05-09T07:16:13.255Z,72.24
2024-05-09T07:17:14.158Z,72.34
2024-05-09T07:18:15.079Z,71.50
2024-05-09T07:19:15.668Z,70.98
2024-05-09T07:20:22.953Z,70.44
2024-05-09T07:21:17.641Z,70.95
2024-05-09T07:22:17.446Z,70.85
2024-05-09T07:23:18.467Z,70.75
2024-05-09T07:24:18.895Z,70.75
2024-05-09T07:25:19.638Z,71.15
2024-05-09T07:26:20.440Z,69.90
2024-05-09T07:27:21.196Z,69.15
2024-05-09T07:28:21.949Z,68.75
2024-05-09T07:29:22.766Z,69.06
2024-05-09T07:30:30.566Z,69.46
2024-05-09T07:31:25.145Z,68.24
2024-05-09T07:32:25.021Z,68.24
2024-05-09T07:33:25.949Z,68.75
2024-05-09T07:34:26.525Z,68.31
2024-05-09T07:35:27.188Z,67.16
2024-05-09T07:36:27.757Z,67.26
2024-05-09T07:37:28.556Z,66.65
2024-05-09T07:38:29.380Z,67.05
2024-05-09T07:39:30.108Z,67.69
2024-05-09T07:40:35.947Z,66.88
2024-05-09T07:41:32.704Z,66.00
2024-05-09T07:42:32.482Z,65.06
2024-05-09T07:43:33.226Z,63.67
2024-05-09T07:44:34.109Z,63.97
2024-05-09T07:48:57.641Z,63.81
2024-05-09T07:53:45.388Z,63.60
2024-05-09T07:54:42.088Z,63.10
2024-05-09T07:55:42.077Z,62.90
2024-05-09T07:56:42.574Z,63.10
2024-05-09T07:57:43.340Z,62.49
2024-05-09T07:58:44.127Z,62.36
2024-05-09T07:59:44.904Z,62.05
2024-05-09T08:00:45.727Z,61.75
2024-05-09T08:01:46.574Z,62.36
2024-05-09T08:02:47.363Z,62.36
2024-05-09T08:03:48.438Z,63.60
2024-05-09T08:04:48.979Z,63.00
2024-05-09T08:05:49.872Z,62.05
2024-05-09T08:06:50.751Z,61.34
2024-05-09T08:07:51.535Z,60.30
2024-05-09T08:08:52.329Z,60.58
2024-05-09T08:09:53.119Z,60.27
2024-05-09T08:10:53.909Z,60.27
2024-05-09T08:11:54.708Z,61.76
2024-05-09T08:12:55.603Z,61.39
2024-05-09T08:13:56.318Z,61.59
2024-05-09T08:14:57.072Z,62.10
2024-05-09T08:15:57.877Z,61.23
2024-05-09T08:16:58.706Z,60.79
2024-05-09T08:17:59.665Z,60.26
2024-05-09T08:19:00.188Z,60.28
2024-05-09T08:20:02.024Z,60.26
2024-05-09T08:21:01.262Z,59.45
2024-05-09T08:22:02.098Z,59.65
2024-05-09T08:23:02.846Z,60.36
2024-05-09T08:24:03.608Z,58.94
2024-05-09T08:25:04.396Z,57.53
2024-05-09T08:26:05.134Z,57.83
2024-05-09T08:27:05.914Z,57.83
2024-05-09T08:28:06.709Z,57.50
2024-05-09T08:29:07.499Z,58.18
2024-05-09T08:30:15.279Z,57.24
2024-05-09T08:31:09.955Z,57.85
2024-05-09T08:32:09.719Z,59.19
2024-05-09T08:33:10.655Z,56.46
2024-05-09T08:34:11.083Z,58.63
2024-05-09T08:35:11.927Z,58.73
2024-05-09T08:36:12.718Z,56.61
2024-05-09T08:37:21.166Z,55.90
2024-05-09T08:38:15.247Z,57.72
2024-05-09T08:39:15.164Z,57.01
2024-05-09T08:40:23.850Z,60.14
2024-05-09T08:41:17.575Z,56.61
2024-05-09T08:42:17.323Z,56.18
2024-05-09T08:43:18.103Z,56.30
2024-05-09T08:44:18.870Z,55.90
2024-05-09T08:45:19.632Z,55.16
2024-05-09T08:46:20.743Z,55.85
2024-05-09T08:47:21.170Z,57.18
2024-05-09T08:49:22.871Z,53.63
2024-05-09T08:50:31.793Z,53.12
2024-05-09T08:51:25.286Z,53.32
2024-05-09T08:52:25.039Z,52.67
2024-05-09T08:53:25.802Z,52.09
2024-05-09T08:54:26.569Z,52.29
2024-05-09T08:55:27.345Z,51.53
2024-05-09T08:56:28.108Z,53.14
2024-05-09T08:57:28.862Z,52.11
2024-05-09T08:58:29.607Z,49.72
2024-05-09T08:59:30.392Z,48.83
2024-05-09T09:00:36.606Z,49.24
2024-05-09T09:01:32.985Z,48.61
2024-05-09T09:02:32.850Z,48.79
2024-05-09T09:03:34.119Z,48.99
2024-05-09T09:04:34.691Z,47.47
2024-05-09T09:05:35.585Z,47.07
2024-05-09T09:06:36.442Z,46.67
2024-05-09T09:07:37.252Z,47.78
2024-05-09T09:08:38.016Z,47.25
2024-05-09T09:09:38.794Z,48.49
2024-05-09T09:10:39.761Z,49.69
2024-05-09T09:11:40.109Z,47.47
2024-05-09T09:12:40.881Z,47.47
2024-05-09T09:13:41.625Z,48.21
2024-05-09T09:14:42.377Z,48.30
2024-05-09T09:15:43.237Z,50.10
2024-05-09T09:16:44.000Z,48.26
2024-05-09T09:17:44.852Z,50.60
2024-05-09T09:18:45.789Z,49.07
2024-05-09T09:19:46.612Z,49.69
2024-05-09T09:20:47.398Z,49.09
2024-05-09T09:21:48.201Z,53.50
2024-05-09T09:22:48.939Z,51.06
2024-05-09T09:23:49.691Z,49.85
2024-05-09T09:24:50.499Z,48.86
2024-05-09T09:25:51.230Z,49.07
2024-05-09T09:26:51.994Z,50.45
2024-05-09T09:27:52.780Z,49.75
2024-05-09T09:28:53.538Z,51.18
2024-05-09T09:29:54.295Z,51.26
2024-05-09T09:30:55.131Z,50.25
2024-05-09T09:31:55.847Z,50.23
2024-05-09T09:32:56.733Z,49.12
2024-05-09T09:33:57.873Z,50.60
2024-05-09T09:34:58.225Z,50.58
2024-05-09T09:35:58.975Z,50.66
2024-05-09T09:36:59.796Z,48.99
2024-05-09T09:38:00.543Z,49.42
2024-05-09T09:39:01.274Z,49.42
2024-05-09T09:40:02.078Z,50.10
2024-05-09T09:41:02.992Z,48.99
2024-05-09T09:42:03.802Z,48.09
2024-05-09T09:43:04.607Z,48.32
2024-05-09T09:44:05.332Z,50.73
2024-05-09T09:45:06.154Z,48.34
2024-05-09T09:46:09.644Z,49.02
2024-05-09T09:47:07.550Z,48.09
2024-05-09T09:48:08.330Z,49.42
2024-05-09T09:49:09.277Z,49.60
2024-05-09T09:50:14.465Z,47.79
2024-05-09T09:51:11.315Z,49.30
2024-05-09T09:52:11.462Z,48.87
2024-05-09T09:53:11.736Z,49.19
2024-05-09T09:54:12.503Z,48.32
2024-05-09T09:55:13.385Z,48.32
2024-05-09T09:56:14.354Z,47.91
2024-05-09T09:57:15.048Z,47.66
2024-05-09T09:58:15.894Z,48.29
2024-05-09T09:59:16.616Z,47.79
2024-05-09T10:00:23.995Z,48.99
2024-05-09T10:01:19.131Z,49.22
2024-05-09T10:02:19.215Z,48.47
2024-05-09T10:03:19.758Z,48.49
2024-05-09T10:04:20.591Z,50.71
2024-05-09T10:05:21.533Z,49.70
2024-05-09T10:06:21.857Z,50.71
2024-05-09T10:07:22.694Z,49.70
2024-05-09T10:08:23.437Z,48.17
2024-05-09T10:09:24.208Z,48.95
2024-05-09T10:10:31.485Z,48.49
2024-05-09T10:11:26.661Z,50.28
2024-05-09T10:12:26.453Z,48.17
2024-05-09T10:13:27.243Z,48.25
2024-05-09T10:14:27.982Z,49.33
2024-05-09T10:15:28.819Z,46.85
2024-05-09T10:16:29.629Z,47.65
2024-05-09T10:17:30.427Z,47.27
2024-05-09T10:18:32.741Z,49.30
2024-05-09T10:19:32.093Z,47.19
2024-05-09T10:20:33.158Z,48.67
2024-05-09T10:21:33.465Z,48.37
2024-05-09T10:22:34.196Z,49.37
2024-05-09T10:23:34.980Z,46.84
2024-05-09T10:24:35.784Z,45.75
2024-05-09T10:25:36.551Z,47.36
2024-05-09T10:26:37.348Z,48.29
2024-05-09T10:27:38.058Z,47.39
2024-05-09T10:28:38.844Z,47.46
2024-05-09T10:29:39.585Z,47.22
2024-05-09T10:30:42.755Z,47.14
2024-05-09T10:31:41.152Z,47.24
2024-05-09T10:32:41.492Z,47.74
2024-05-09T10:33:42.626Z,48.55
2024-05-09T10:34:43.016Z,48.44
2024-05-09T10:35:43.759Z,48.47
2024-05-09T10:36:44.591Z,47.94
2024-05-09T10:37:45.385Z,48.37
2024-05-09T10:38:46.153Z,48.44
2024-05-09T10:39:46.941Z,47.32
2024-05-09T10:40:47.684Z,48.32
2024-05-09T10:41:48.449Z,47.39
2024-05-09T10:42:49.263Z,46.81
2024-05-09T10:43:50.001Z,46.69
2024-05-09T10:44:50.758Z,46.44
2024-05-09T10:45:51.571Z,46.68
2024-05-09T10:46:52.314Z,47.16
2024-05-09T10:47:53.387Z,46.73
2024-05-09T10:48:54.401Z,46.23
2024-05-09T10:49:54.872Z,48.35
2024-05-09T10:50:55.638Z,47.42
2024-05-09T10:51:56.495Z,46.51
2024-05-09T10:52:57.234Z,46.19
2024-05-09T10:53:57.989Z,45.41
2024-05-09T10:54:59.952Z,47.62
2024-05-09T10:55:59.663Z,47.62
2024-05-09T10:57:00.439Z,46.11
2024-05-09T10:58:01.175Z,46.73
2024-05-09T10:59:01.946Z,46.06
2024-05-09T11:00:02.750Z,45.94
2024-05-09T11:01:06.302Z,44.35
2024-05-09T11:02:04.582Z,45.86
2024-05-09T11:03:04.956Z,45.15
2024-05-09T11:04:05.902Z,43.54
2024-05-09T11:05:06.357Z,44.37
2024-05-09T11:06:07.517Z,45.17
2024-05-09T11:07:07.961Z,45.39
2024-05-09T11:08:08.685Z,45.57
2024-05-09T11:09:09.435Z,46.08
2024-05-09T11:10:12.630Z,45.95
2024-05-09T11:11:10.879Z,46.06
2024-05-09T11:12:11.700Z,47.26
2024-05-09T11:13:12.603Z,47.85
2024-05-09T11:14:13.328Z,47.47
2024-05-09T11:15:14.088Z,45.47
2024-05-09T11:16:14.910Z,46.19
2024-05-09T11:17:15.812Z,47.30
2024-05-09T11:18:16.904Z,46.07
2024-05-09T11:19:17.419Z,45.49
2024-05-09T11:20:26.416Z,46.81
2024-05-09T11:21:19.410Z,46.34
2024-05-09T11:22:19.310Z,44.89
2024-05-09T11:23:20.129Z,44.79
2024-05-09T11:24:20.916Z,43.28
2024-05-09T11:25:21.707Z,42.58
2024-05-09T11:26:22.542Z,43.38
2024-05-09T11:27:23.269Z,42.78
2024-05-09T11:28:24.068Z,43.38
2024-05-09T11:29:24.834Z,40.97
2024-05-09T11:30:31.583Z,42.66
2024-05-09T11:31:27.563Z,42.97
2024-05-09T11:32:27.147Z,42.52
2024-05-09T11:33:28.068Z,44.40
2024-05-09T11:34:29.026Z,43.68
2024-05-09T11:35:29.770Z,44.21
2024-05-09T11:36:30.581Z,43.01
2024-05-09T11:37:34.044Z,42.88
2024-05-09T11:38:31.970Z,44.72
2024-05-09T11:39:32.714Z,43.70
2024-05-09T11:40:34.645Z,44.32
2024-05-09T11:41:34.110Z,49.16
2024-05-09T11:42:34.943Z,43.08
2024-05-09T11:43:35.687Z,42.18
2024-05-09T11:44:36.407Z,44.02
2024-05-09T11:45:37.312Z,41.79
2024-05-09T11:46:38.051Z,41.51
2024-05-09T11:47:38.885Z,41.49
2024-05-09T11:48:39.845Z,41.13
2024-05-09T11:49:40.371Z,42.43
2024-05-09T11:50:41.109Z,41.35
2024-05-09T11:51:41.860Z,42.57
2024-05-09T11:52:42.620Z,43.33
2024-05-09T11:53:43.368Z,46.26
2024-05-09T11:54:44.134Z,44.56
2024-05-09T11:55:44.900Z,41.07
2024-05-09T11:56:45.653Z,40.61
2024-05-09T11:57:46.549Z,41.52
2024-05-09T11:58:47.251Z,40.91
2024-05-09T11:59:48.033Z,42.40
2024-05-09T12:00:49.068Z,41.19
2024-05-09T12:01:49.716Z,41.03
2024-05-09T12:02:50.050Z,41.13
2024-05-09T12:03:50.885Z,40.71
2024-05-09T12:04:51.757Z,40.93
2024-05-09T12:05:52.578Z,41.31
2024-05-09T12:06:53.392Z,41.11
2024-05-09T12:07:54.123Z,40.47
2024-05-09T12:08:54.879Z,42.03
2024-05-09T12:09:55.656Z,40.83
2024-05-09T12:10:57.111Z,41.43
2024-05-09T12:11:57.197Z,42.43
2024-05-09T12:12:58.041Z,40.93
2024-05-09T12:13:58.773Z,40.97
2024-05-09T12:14:59.558Z,40.71
2024-05-09T12:16:00.316Z,40.73
2024-05-09T12:17:01.053Z,41.71
2024-05-09T12:18:03.887Z,40.09
2024-05-09T12:19:02.736Z,43.70
2024-05-09T12:20:06.958Z,41.69
2024-05-09T12:21:05.258Z,41.09
2024-05-09T12:22:05.762Z,42.19
2024-05-09T12:23:06.029Z,40.58
2024-05-09T12:24:06.819Z,41.39
2024-05-09T12:25:07.747Z,41.09
2024-05-09T12:26:08.541Z,40.09
2024-05-09T12:27:09.313Z,40.41
2024-05-09T12:28:10.170Z,42.32
2024-05-09T12:29:10.935Z,40.39
2024-05-09T12:30:17.233Z,39.87
2024-05-09T12:31:13.390Z,41.05
2024-05-09T12:32:13.190Z,39.56
2024-05-09T12:33:14.390Z,40.99
2024-05-09T12:34:14.908Z,38.48
2024-05-09T12:35:15.261Z,38.96
2024-05-09T12:36:16.025Z,39.06
2024-05-09T12:37:16.839Z,39.29
2024-05-09T12:38:17.591Z,39.91
2024-05-09T12:39:18.347Z,39.20
2024-05-09T12:40:26.773Z,38.85
2024-05-09T12:41:20.771Z,38.89
2024-05-09T12:42:27.159Z,39.86
2024-05-09T12:43:22.377Z,38.34
2024-05-09T12:44:21.718Z,38.18
2024-05-09T12:45:22.470Z,39.36
2024-05-09T12:46:23.478Z,39.20
2024-05-09T12:47:23.868Z,42.05
2024-05-09T12:48:24.820Z,37.68
2024-05-09T12:49:25.723Z,37.88
2024-05-09T12:50:32.188Z,38.11
2024-05-09T12:51:28.258Z,38.04
2024-05-09T12:52:28.041Z,37.59
2024-05-09T12:53:28.768Z,37.21
2024-05-09T12:54:29.603Z,39.02
2024-05-09T12:55:37.146Z,37.54
2024-05-09T12:56:31.975Z,40.32
2024-05-09T12:57:31.751Z,38.12
2024-05-09T12:58:32.492Z,38.56
2024-05-09T12:59:33.289Z,38.94
2024-05-09T13:00:34.653Z,37.88
2024-05-09T13:01:35.085Z,37.04
2024-05-09T13:02:35.967Z,41.28
2024-05-09T13:03:37.132Z,36.80
2024-05-09T13:04:37.783Z,37.32
2024-05-09T13:05:38.356Z,38.02
2024-05-09T13:06:39.137Z,38.54
2024-05-09T13:07:39.857Z,38.24
2024-05-09T13:08:40.645Z,41.05
2024-05-09T13:09:41.427Z,39.06
2024-05-09T13:10:42.380Z,43.25
2024-05-09T13:11:42.788Z,39.92
2024-05-09T13:12:43.572Z,41.85